Strona główna
METAR-TAF:

METAR-TAF

Lotnisko :

Port lotniczy Svolvær

Svolvær, Norwegia

Szerokość geograficzna: 68-15N, Długość geograficzna: 014-40E, wysokość: 0 m

Aktualna obserwacja pogody

Raport powstał 15 godziny i 50 minut temu, godzina 06:50 UTC
Wiatr 10 kt od południowo-południowy zachód
Temperatura 7°C
Wilgotność 93%
Ciśnienie 1034 hPa
Widzialność: 8000 m
Rozproszone chmury na wysokości 800 ft
Przerywane chmury na wysokości 1200 ft
słaby przelotny opad deszczu

METAR: ENSH 300650Z 20010KT 9999 8000S -SHRA SCT008 BKN012 07/06 Q1034 RMK WIND 150FT 19009KT

czas: 00:40 (22:40 UTC)


TAF: brakujący

Obserwacja i prognoza pogody dla ponad 4000 lotnisk (raport METAR i TAF).

Dostępne stacje oznaczono żółtymi i czerwonymi punktami na mapie.

Najedź kursorem aby zobaczyć nazwę stacji.

Kliknij aby zobaczyć obserwacje i prognozy pogody.

Aby zmienić mapę: kliknij na zielony przycisk z czarnym krzyżykiem, aby powiększyć; na zielony przycisk z myślnikiem, aby pomniejszyć; na zielone strzałki, aby przejść do map sąsiednich.


METAR-TAF: